createdAt,value
2018-02-08T00:00:50.454Z,24.55
2018-02-08T00:03:17.944Z,26.77
2018-02-08T00:05:45.405Z,22.10
2018-02-08T00:08:12.914Z,25.08
2018-02-08T00:10:40.390Z,23.23
2018-02-08T00:13:07.851Z,24.97
2018-02-08T00:15:35.345Z,22.05
2018-02-08T00:18:02.813Z,21.12
2018-02-08T00:20:30.301Z,22.73
2018-02-08T00:22:57.772Z,26.17
2018-02-08T00:25:25.256Z,23.62
2018-02-08T00:27:52.737Z,23.25
2018-02-08T00:30:20.206Z,27.98
2018-02-08T00:32:48.453Z,25.05
2018-02-08T00:35:15.929Z,25.10
2018-02-08T00:37:43.418Z,31.10
2018-02-08T00:40:11.702Z,26.08
2018-02-08T00:42:39.179Z,26.13
2018-02-08T00:45:06.684Z,24.33
2018-02-08T00:47:34.156Z,25.17
2018-02-08T00:50:01.618Z,18.52
2018-02-08T00:52:29.122Z,24.92
2018-02-08T00:54:56.589Z,25.45
2018-02-08T00:57:24.058Z,24.67
2018-02-08T00:59:51.542Z,17.92
2018-02-08T01:02:19.789Z,15.18
2018-02-08T01:04:47.294Z,20.55
2018-02-08T01:07:15.940Z,22.40
2018-02-08T01:09:43.428Z,21.00
2018-02-08T01:12:11.692Z,20.70
2018-02-08T01:14:39.153Z,19.05
2018-02-08T01:17:06.621Z,20.00
2018-02-08T01:19:34.145Z,20.02
2018-02-08T01:22:01.604Z,32.78
2018-02-08T01:24:29.109Z,27.80
2018-02-08T01:26:56.577Z,26.20
2018-02-08T01:29:24.042Z,22.48
2018-02-08T01:31:51.541Z,23.70
2018-02-08T01:34:19.005Z,15.50
2018-02-08T01:36:46.468Z,19.92
2018-02-08T01:39:13.974Z,23.27
2018-02-08T01:41:42.789Z,20.30
2018-02-08T01:44:10.290Z,19.40
2018-02-08T01:46:37.748Z,24.15
2018-02-08T01:49:05.985Z,17.50
2018-02-08T01:51:33.476Z,20.10
2018-02-08T01:54:00.941Z,19.95
2018-02-08T01:56:29.198Z,17.70
2018-02-08T01:58:56.655Z,18.70
2018-02-08T02:01:24.128Z,20.98
2018-02-08T02:03:52.353Z,22.70
2018-02-08T02:06:19.846Z,22.40
2018-02-08T02:08:47.353Z,21.25
2018-02-08T02:11:14.820Z,16.83
2018-02-08T02:13:42.297Z,17.80
2018-02-08T02:16:09.761Z,16.77
2018-02-08T02:18:37.288Z,19.40
2018-02-08T02:21:04.781Z,22.95
2018-02-08T02:23:32.274Z,17.65
2018-02-08T02:25:59.733Z,22.35
2018-02-08T02:28:27.194Z,17.75
2018-02-08T02:30:54.670Z,17.65
2018-02-08T02:33:23.327Z,15.93
2018-02-08T02:35:51.259Z,23.80
2018-02-08T02:38:18.716Z,20.52
2018-02-08T02:40:46.213Z,21.75
2018-02-08T02:43:13.678Z,21.30
2018-02-08T02:45:41.150Z,24.75
2018-02-08T02:48:08.642Z,29.65
2018-02-08T02:50:36.135Z,19.58
2018-02-08T02:53:03.613Z,19.12
2018-02-08T02:55:31.104Z,25.70
2018-02-08T02:57:58.602Z,27.73
2018-02-08T03:00:26.086Z,18.40
2018-02-08T03:02:53.538Z,26.15
2018-02-08T03:05:21.020Z,23.90
2018-02-08T03:07:48.482Z,18.42
2018-02-08T03:10:16.729Z,21.70
2018-02-08T03:12:44.211Z,20.87
2018-02-08T03:15:12.459Z,27.00
2018-02-08T03:17:39.929Z,19.60
2018-02-08T03:20:07.382Z,19.23
2018-02-08T03:22:34.857Z,24.30
2018-02-08T03:25:03.081Z,22.95
2018-02-08T03:27:30.580Z,19.70
2018-02-08T03:29:58.040Z,21.42
2018-02-08T03:32:25.529Z,18.50
2018-02-08T03:34:52.989Z,20.92
2018-02-08T03:37:20.469Z,18.50
2018-02-08T03:39:47.949Z,20.60
2018-02-08T03:42:15.417Z,21.67
2018-02-08T03:44:42.898Z,22.37
2018-02-08T03:47:10.348Z,20.83
2018-02-08T03:49:37.830Z,20.00
2018-02-08T03:52:06.077Z,25.37
2018-02-08T03:54:33.557Z,21.10
2018-02-08T03:57:01.786Z,18.90
2018-02-08T03:59:29.309Z,20.45
2018-02-08T04:01:56.789Z,27.92
2018-02-08T04:04:24.281Z,22.02
2018-02-08T04:06:51.775Z,18.45
2018-02-08T04:09:19.238Z,24.05
2018-02-08T04:11:46.692Z,24.00
2018-02-08T04:14:14.171Z,23.95
2018-02-08T04:16:41.640Z,39.72
2018-02-08T04:19:09.129Z,21.15
2018-02-08T04:21:36.589Z,22.73
2018-02-08T04:24:04.077Z,24.70
2018-02-08T04:26:32.488Z,25.83
2018-02-08T04:29:00.033Z,23.87
2018-02-08T04:31:27.514Z,23.23
2018-02-08T04:33:54.972Z,23.55
2018-02-08T04:36:22.458Z,22.85
2018-02-08T04:39:01.745Z,25.80
2018-02-08T04:41:41.153Z,20.33
2018-02-08T04:44:23.231Z,22.67
2018-02-08T04:47:02.551Z,27.92
2018-02-08T04:49:30.013Z,24.25
2018-02-08T04:51:58.258Z,17.58
2018-02-08T04:54:25.756Z,19.48
2018-02-08T04:56:53.239Z,18.95
2018-02-08T04:59:20.705Z,21.80
2018-02-08T05:01:48.962Z,21.70
2018-02-08T05:04:16.422Z,20.48
2018-02-08T05:06:43.906Z,20.00
2018-02-08T05:09:11.389Z,28.10
2018-02-08T05:11:38.871Z,25.37
2018-02-08T05:14:06.336Z,20.90
2018-02-08T05:16:33.834Z,25.83
2018-02-08T05:19:01.289Z,32.38
2018-02-08T05:21:28.767Z,22.55
2018-02-08T05:23:57.006Z,27.50
2018-02-08T05:26:24.470Z,26.37
2018-02-08T05:28:51.985Z,24.30
2018-02-08T05:31:19.482Z,27.02
2018-02-08T05:33:46.947Z,30.85
2018-02-08T05:36:14.420Z,33.08
2018-02-08T05:38:41.885Z,24.25
2018-02-08T05:41:09.377Z,28.25
2018-02-08T05:43:36.847Z,28.50
2018-02-08T05:46:04.305Z,31.00
2018-02-08T05:48:31.798Z,27.05
2018-02-08T05:51:00.035Z,24.67
2018-02-08T05:53:27.490Z,33.45
2018-02-08T05:55:54.964Z,26.92
2018-02-08T05:58:22.495Z,40.90
2018-02-08T06:00:50.742Z,30.37
2018-02-08T06:03:18.205Z,38.03
2018-02-08T06:05:45.689Z,25.27
2018-02-08T06:08:13.146Z,24.83
2018-02-08T06:10:40.638Z,22.77
2018-02-08T06:13:08.101Z,29.42
2018-02-08T06:15:35.590Z,22.70
2018-02-08T06:18:03.061Z,29.73
2018-02-08T06:20:30.525Z,25.65
2018-02-08T06:22:58.014Z,27.33
2018-02-08T06:25:25.498Z,27.05
2018-02-08T06:27:52.962Z,22.65
2018-02-08T06:30:20.760Z,28.20
2018-02-08T06:32:49.033Z,24.65
2018-02-08T06:35:16.549Z,26.25
2018-02-08T06:37:44.041Z,25.35
2018-02-08T06:40:11.588Z,28.52
2018-02-08T06:42:39.140Z,30.60
2018-02-08T06:45:06.613Z,31.75
2018-02-08T06:47:34.080Z,33.67
2018-02-08T06:50:01.573Z,25.67
2018-02-08T06:52:29.038Z,27.05
2018-02-08T06:54:56.513Z,26.12
2018-02-08T06:57:23.969Z,25.30
2018-02-08T06:59:51.465Z,31.55
2018-02-08T07:02:18.921Z,29.77
2018-02-08T07:04:46.381Z,32.63
2018-02-08T07:07:13.892Z,24.55
2018-02-08T07:09:41.373Z,26.58
2018-02-08T07:12:08.855Z,32.27
2018-02-08T07:14:36.350Z,29.58
2018-02-08T07:17:03.843Z,26.55
2018-02-08T07:19:31.319Z,29.85
2018-02-08T07:21:58.814Z,42.17
2018-02-08T07:24:26.282Z,29.27
2018-02-08T07:26:53.783Z,23.70
2018-02-08T07:29:21.244Z,30.27
2018-02-08T07:31:49.470Z,23.90
2018-02-08T07:34:16.952Z,30.02
2018-02-08T07:36:44.404Z,33.75
2018-02-08T07:39:11.899Z,50.65
2018-02-08T07:41:39.534Z,31.08
2018-02-08T07:44:07.009Z,34.35
2018-02-08T07:46:34.470Z,24.90
2018-02-08T07:49:02.014Z,22.30
2018-02-08T07:51:29.509Z,29.67
2018-02-08T07:53:56.961Z,29.63
2018-02-08T07:56:24.475Z,27.58
2018-02-08T07:58:51.945Z,30.05
2018-02-08T08:01:19.405Z,26.87
2018-02-08T08:03:46.894Z,27.42
2018-02-08T08:06:14.357Z,30.17
2018-02-08T08:08:41.821Z,28.05
2018-02-08T08:11:09.321Z,30.85
2018-02-08T08:13:36.786Z,32.07
2018-02-08T08:16:04.266Z,27.17
2018-02-08T08:18:31.757Z,24.52
2018-02-08T08:20:59.291Z,28.75
2018-02-08T08:23:26.742Z,32.65
2018-02-08T08:25:54.209Z,30.27
2018-02-08T08:28:21.705Z,27.85
2018-02-08T08:30:49.944Z,28.95
2018-02-08T08:33:17.429Z,32.67
2018-02-08T08:35:44.898Z,32.65
2018-02-08T08:38:13.161Z,35.10
2018-02-08T08:40:40.643Z,32.40
2018-02-08T08:43:08.905Z,32.22
2018-02-08T08:45:36.369Z,31.80
2018-02-08T08:48:04.651Z,26.35
2018-02-08T08:50:32.917Z,29.27
2018-02-08T08:53:01.149Z,32.78
2018-02-08T08:55:28.641Z,33.20
2018-02-08T08:57:56.137Z,27.52
2018-02-08T09:00:23.641Z,37.00
2018-02-08T09:02:51.112Z,30.12
2018-02-08T09:05:18.605Z,37.67
2018-02-08T09:07:46.098Z,28.98
2018-02-08T09:10:13.628Z,26.95
2018-02-08T09:12:41.881Z,33.88
2018-02-08T09:15:09.352Z,25.83
2018-02-08T09:17:37.631Z,42.10
2018-02-08T09:20:05.861Z,33.13
2018-02-08T09:22:33.353Z,35.92
2018-02-08T09:25:01.585Z,30.25
2018-02-08T09:27:29.089Z,34.80
2018-02-08T09:29:56.585Z,37.85
2018-02-08T09:32:24.074Z,34.72
2018-02-08T09:34:51.564Z,29.52
2018-02-08T09:37:19.052Z,32.40
2018-02-08T09:39:46.599Z,30.00
2018-02-08T09:42:14.856Z,31.77
2018-02-08T09:44:42.338Z,30.58
2018-02-08T09:47:09.814Z,35.28
2018-02-08T09:49:37.308Z,25.92
2018-02-08T09:52:04.777Z,36.33
2018-02-08T09:54:32.273Z,26.87
2018-02-08T09:56:59.959Z,32.55
2018-02-08T09:59:27.525Z,46.20
2018-02-08T10:01:55.009Z,40.10
2018-02-08T10:04:22.478Z,29.15
2018-02-08T10:06:49.968Z,22.75
2018-02-08T10:09:17.550Z,27.73
2018-02-08T10:11:45.054Z,37.73
2018-02-08T10:14:12.527Z,26.37
2018-02-08T10:16:40.013Z,27.48
2018-02-08T10:19:07.499Z,29.30
2018-02-08T10:21:35.009Z,39.17
2018-02-08T10:24:03.249Z,25.30
2018-02-08T10:26:30.733Z,25.00
2018-02-08T10:28:58.222Z,24.80
2018-02-08T10:31:25.805Z,27.73
2018-02-08T10:33:53.296Z,30.50
2018-02-08T10:36:20.764Z,29.25
2018-02-08T10:38:48.274Z,27.63
2018-02-08T10:41:15.823Z,27.67
2018-02-08T10:43:43.317Z,23.93
2018-02-08T10:46:10.797Z,33.23
2018-02-08T10:48:38.290Z,24.67
2018-02-08T10:51:06.526Z,29.73
2018-02-08T10:53:33.998Z,36.83
2018-02-08T10:56:01.484Z,18.37
2018-02-08T10:58:29.733Z,25.73
2018-02-08T11:00:57.191Z,15.60
2018-02-08T11:03:24.674Z,28.90
2018-02-08T11:05:52.946Z,27.07
2018-02-08T11:08:20.421Z,23.27
2018-02-08T11:10:47.917Z,28.97
2018-02-08T11:13:15.455Z,25.47
2018-02-08T11:15:42.919Z,23.07
2018-02-08T11:18:10.401Z,38.50
2018-02-08T11:20:37.866Z,22.73
2018-02-08T11:23:05.342Z,28.50
2018-02-08T11:25:32.845Z,24.20
2018-02-08T11:28:00.306Z,36.47
2018-02-08T11:30:27.791Z,24.93
2018-02-08T11:32:55.289Z,32.07
2018-02-08T11:35:22.785Z,32.80
2018-02-08T11:37:50.242Z,29.00
2018-02-08T11:40:17.732Z,25.20
2018-02-08T11:42:45.202Z,26.03
2018-02-08T11:45:12.694Z,35.07
2018-02-08T11:47:40.949Z,23.13
2018-02-08T11:50:08.425Z,29.73
2018-02-08T11:52:36.674Z,38.83
2018-02-08T11:55:04.137Z,29.63
2018-02-08T11:57:31.618Z,27.97
2018-02-08T11:59:59.913Z,28.63
2018-02-08T12:02:27.400Z,25.13
2018-02-08T12:04:54.869Z,33.70
2018-02-08T12:07:22.357Z,15.30
2018-02-08T12:09:49.841Z,41.27
2018-02-08T12:12:17.334Z,26.07
2018-02-08T12:14:44.793Z,24.00
2018-02-08T12:17:12.273Z,25.87
2018-02-08T12:19:39.728Z,26.23
2018-02-08T12:22:07.233Z,22.43
2018-02-08T12:24:34.688Z,31.60
2018-02-08T12:27:02.146Z,26.77
2018-02-08T12:29:29.634Z,23.30
2018-02-08T12:31:57.118Z,32.60
2018-02-08T12:34:24.577Z,20.53
2018-02-08T12:36:52.038Z,29.07
2018-02-08T12:39:19.515Z,27.90
2018-02-08T12:41:46.978Z,29.07
2018-02-08T12:44:14.460Z,32.63
2018-02-08T12:46:41.937Z,26.07
2018-02-08T12:49:09.400Z,33.13
2018-02-08T12:51:36.876Z,34.80
2018-02-08T12:54:04.341Z,37.20
2018-02-08T12:56:31.824Z,46.10
2018-02-08T12:59:00.119Z,27.93
2018-02-08T13:01:28.357Z,26.17
2018-02-08T13:03:55.840Z,29.83
2018-02-08T13:06:24.177Z,28.73
2018-02-08T13:08:51.637Z,20.73
2018-02-08T13:11:19.123Z,31.60
2018-02-08T13:13:46.610Z,28.57
2018-02-08T13:16:14.086Z,22.20
2018-02-08T13:18:41.569Z,30.90
2018-02-08T13:21:09.025Z,31.40
2018-02-08T13:23:36.550Z,34.70
2018-02-08T13:26:04.014Z,26.40
2018-02-08T13:28:31.505Z,30.60
2018-02-08T13:30:58.965Z,26.47
2018-02-08T13:33:26.448Z,33.77
2018-02-08T13:35:53.945Z,66.67
2018-02-08T13:38:21.476Z,31.70
2018-02-08T13:41:00.573Z,35.37
2018-02-08T13:43:28.054Z,25.23
2018-02-08T13:45:55.562Z,30.30
2018-02-08T13:48:35.716Z,32.13
2018-02-08T13:54:15.349Z,26.40
2018-02-08T13:56:48.591Z,29.90
2018-02-08T13:59:16.993Z,27.60
2018-02-08T14:01:49.275Z,27.37
2018-02-08T14:04:16.761Z,32.37
2018-02-08T14:06:44.988Z,27.93
2018-02-08T14:09:12.477Z,27.70
2018-02-08T14:11:40.714Z,30.10
2018-02-08T14:14:08.194Z,38.90
2018-02-08T14:16:35.673Z,33.17
2018-02-08T14:19:03.154Z,33.07
2018-02-08T14:21:31.408Z,30.43
2018-02-08T14:23:58.925Z,40.37
2018-02-08T14:26:26.390Z,47.20
2018-02-08T14:28:53.861Z,32.20
2018-02-08T14:31:21.345Z,33.70
2018-02-08T14:33:48.810Z,36.97
2018-02-08T14:36:16.293Z,29.00
2018-02-08T14:38:43.758Z,32.40
2018-02-08T14:41:11.245Z,32.73
2018-02-08T14:43:38.737Z,34.23
2018-02-08T14:46:06.252Z,41.20
2018-02-08T14:48:34.429Z,34.10
2018-02-08T14:51:01.927Z,39.17
2018-02-08T14:53:29.417Z,38.97
2018-02-08T14:55:56.883Z,41.00
2018-02-08T14:58:24.348Z,38.50
2018-02-08T15:00:51.833Z,39.10
2018-02-08T15:03:19.294Z,31.93
2018-02-08T15:05:46.782Z,37.23
2018-02-08T15:08:15.005Z,44.93
2018-02-08T15:10:42.493Z,45.83
2018-02-08T15:13:09.977Z,34.30
2018-02-08T15:15:38.230Z,48.87
2018-02-08T15:18:05.688Z,31.67
2018-02-08T15:20:33.174Z,35.57
2018-02-08T15:23:00.640Z,32.57
2018-02-08T15:25:28.882Z,34.87
2018-02-08T15:27:56.341Z,41.23
2018-02-08T15:30:23.829Z,33.80
2018-02-08T15:32:51.455Z,31.90
2018-02-08T15:35:18.921Z,31.23
2018-02-08T15:37:46.405Z,37.97
2018-02-08T15:40:13.887Z,38.93
2018-02-08T15:42:41.348Z,31.30
2018-02-08T15:45:08.797Z,35.43
2018-02-08T15:47:36.294Z,36.57
2018-02-08T15:50:03.788Z,34.13
2018-02-08T15:52:31.240Z,33.40
2018-02-08T15:54:58.717Z,33.10
2018-02-08T15:57:26.965Z,29.63
2018-02-08T15:59:54.422Z,33.77
2018-02-08T16:02:21.902Z,32.17
2018-02-08T16:04:50.130Z,35.23
2018-02-08T16:07:17.601Z,35.97
2018-02-08T16:09:45.829Z,36.03
2018-02-08T16:12:13.322Z,33.50
2018-02-08T16:14:40.776Z,36.03
2018-02-08T16:17:08.257Z,40.20
2018-02-08T16:19:35.790Z,35.47
2018-02-08T16:22:03.254Z,46.20
2018-02-08T16:24:30.796Z,34.77
2018-02-08T16:26:58.272Z,36.00
2018-02-08T16:29:25.737Z,34.03
2018-02-08T16:31:53.224Z,34.23
2018-02-08T16:34:20.717Z,34.37
2018-02-08T16:36:48.176Z,33.07
2018-02-08T16:39:15.673Z,38.30
2018-02-08T16:41:43.158Z,41.80
2018-02-08T16:44:10.621Z,33.87
2018-02-08T16:46:38.110Z,35.93
2018-02-08T16:49:05.645Z,35.60
2018-02-08T16:51:33.910Z,37.90
2018-02-08T16:54:01.384Z,36.10
2018-02-08T16:56:29.633Z,38.97
2018-02-08T16:58:57.100Z,36.27
2018-02-08T17:01:24.589Z,36.33
2018-02-08T17:03:52.907Z,34.10
2018-02-08T17:06:20.384Z,39.53
2018-02-08T17:08:47.852Z,40.50
2018-02-08T17:11:15.487Z,42.67
2018-02-08T17:13:42.984Z,43.53
2018-02-08T17:16:10.483Z,40.77
2018-02-08T17:18:38.233Z,41.47
2018-02-08T17:21:05.864Z,49.40
2018-02-08T17:23:33.323Z,37.03
2018-02-08T17:26:00.901Z,42.77
2018-02-08T17:28:29.129Z,42.63
2018-02-08T17:30:56.681Z,49.00
2018-02-08T17:33:24.169Z,61.63
2018-02-08T17:35:51.762Z,50.80
2018-02-08T17:38:20.893Z,57.73
2018-02-08T17:40:48.371Z,49.13
2018-02-08T17:43:15.834Z,48.03
2018-02-08T17:45:43.492Z,43.30
2018-02-08T17:48:11.212Z,39.50
2018-02-08T17:50:39.775Z,42.77
2018-02-08T17:53:07.567Z,36.70
2018-02-08T17:55:35.081Z,39.53
2018-02-08T17:58:03.110Z,37.57
2018-02-08T18:00:30.728Z,48.43
2018-02-08T18:02:59.049Z,44.70
2018-02-08T18:05:26.656Z,55.10
2018-02-08T18:07:54.168Z,39.93
2018-02-08T18:10:21.732Z,39.20
2018-02-08T18:12:49.215Z,43.63
2018-02-08T18:15:16.733Z,63.03
2018-02-08T18:17:44.308Z,41.53
2018-02-08T18:20:11.788Z,42.77
2018-02-08T18:22:39.277Z,48.70
2018-02-08T18:25:06.764Z,46.60
2018-02-08T18:27:35.025Z,42.60
2018-02-08T18:30:03.257Z,42.17
2018-02-08T18:32:31.538Z,62.40
2018-02-08T18:34:59.030Z,50.87
2018-02-08T18:37:26.647Z,42.50
2018-02-08T18:39:54.001Z,42.70
2018-02-08T18:42:21.466Z,46.30
2018-02-08T18:44:48.965Z,43.90
2018-02-08T18:47:16.422Z,45.47
2018-02-08T18:49:43.922Z,42.90
2018-02-08T18:52:11.390Z,50.23
2018-02-08T18:54:38.850Z,41.97
2018-02-08T18:57:06.332Z,57.03
2018-02-08T18:59:33.799Z,54.53
2018-02-08T19:02:01.281Z,47.23
2018-02-08T19:04:29.513Z,46.57
2018-02-08T19:06:57.160Z,45.83
2018-02-08T19:09:24.689Z,43.47
2018-02-08T19:11:53.032Z,42.13
2018-02-08T19:14:20.628Z,53.67
2018-02-08T19:16:48.116Z,49.30
2018-02-08T19:19:15.596Z,38.47
2018-02-08T19:21:43.078Z,41.50
2018-02-08T19:24:10.547Z,49.00
2018-02-08T19:26:38.792Z,42.50
2018-02-08T19:29:06.576Z,39.93
2018-02-08T19:31:34.808Z,42.10
2018-02-08T19:34:02.639Z,41.30
2018-02-08T19:36:30.123Z,47.97
2018-02-08T19:38:57.688Z,43.60
2018-02-08T19:41:25.170Z,46.17
2018-02-08T19:43:52.645Z,46.80
2018-02-08T19:46:20.136Z,55.17
2018-02-08T19:48:48.370Z,44.63
2018-02-08T19:51:15.829Z,40.63
2018-02-08T19:53:43.358Z,55.60
2018-02-08T19:56:10.813Z,45.20
2018-02-08T19:58:38.277Z,38.77
2018-02-08T20:01:05.762Z,38.90
2018-02-08T20:03:33.217Z,43.73
2018-02-08T20:06:00.705Z,55.93
2018-02-08T20:08:28.301Z,45.33
2018-02-08T20:10:55.810Z,45.10
2018-02-08T20:13:23.273Z,47.03
2018-02-08T20:15:50.789Z,46.23
2018-02-08T20:18:18.305Z,48.57
2018-02-08T20:20:45.749Z,50.87
2018-02-08T20:23:13.235Z,33.03
2018-02-08T20:25:40.689Z,41.87
2018-02-08T20:28:08.147Z,41.83
2018-02-08T20:30:35.625Z,55.03
2018-02-08T20:33:03.081Z,48.17
2018-02-08T20:35:30.617Z,44.87
2018-02-08T20:37:58.897Z,44.80
2018-02-08T20:40:27.126Z,54.37
2018-02-08T20:43:00.407Z,51.20
2018-02-08T20:45:27.871Z,45.13
2018-02-08T20:47:55.333Z,50.73
2018-02-08T20:50:22.808Z,41.93
2018-02-08T20:52:50.298Z,47.53
2018-02-08T20:55:17.805Z,47.00
2018-02-08T20:57:45.278Z,44.90
2018-02-08T21:00:12.973Z,45.90
2018-02-08T21:02:40.301Z,43.47
2018-02-08T21:05:07.770Z,45.40
2018-02-08T21:07:35.253Z,40.97
2018-02-08T21:10:02.755Z,66.40
2018-02-08T21:12:30.220Z,44.27
2018-02-08T21:14:57.712Z,45.10
2018-02-08T21:17:25.170Z,51.43
2018-02-08T21:19:53.413Z,63.47
2018-02-08T21:22:20.904Z,51.40
2018-02-08T21:24:48.399Z,51.43
2018-02-08T21:27:15.923Z,47.80
2018-02-08T21:29:43.439Z,51.83
2018-02-08T21:32:10.941Z,55.20
2018-02-08T21:34:38.414Z,48.63
2018-02-08T21:37:06.694Z,51.40
2018-02-08T21:39:34.983Z,42.17
2018-02-08T21:42:03.270Z,49.07
2018-02-08T21:44:30.817Z,41.53
2018-02-08T21:46:59.089Z,47.17
2018-02-08T21:49:27.327Z,48.23
2018-02-08T21:51:54.931Z,44.13
2018-02-08T21:54:22.565Z,54.93
2018-02-08T21:56:50.070Z,53.67
2018-02-08T21:59:17.670Z,41.40
2018-02-08T22:01:45.229Z,46.40
2018-02-08T22:04:13.462Z,52.07
2018-02-08T22:06:41.036Z,50.40
2018-02-08T22:09:08.530Z,48.17
2018-02-08T22:11:36.869Z,50.13
2018-02-08T22:14:04.343Z,47.37
2018-02-08T22:16:32.006Z,39.20
2018-02-08T22:18:59.473Z,46.80
2018-02-08T22:21:27.075Z,40.97
2018-02-08T22:23:54.543Z,33.23
2018-02-08T22:26:22.915Z,37.03
2018-02-08T22:28:50.510Z,41.30
2018-02-08T22:31:18.006Z,39.93
2018-02-08T22:33:45.483Z,57.37
2018-02-08T22:36:12.965Z,41.70
2018-02-08T22:38:40.426Z,47.70
2018-02-08T22:41:07.910Z,42.90
2018-02-08T22:43:35.370Z,40.53
2018-02-08T22:46:02.867Z,45.07
2018-02-08T22:48:30.312Z,41.47
2018-02-08T22:50:57.784Z,49.90
2018-02-08T22:53:25.274Z,43.83
2018-02-08T22:55:53.529Z,51.70
2018-02-08T22:58:21.000Z,53.20
2018-02-08T23:00:49.253Z,58.77
2018-02-08T23:03:16.762Z,46.30
2018-02-08T23:05:44.226Z,50.00
2018-02-08T23:08:11.685Z,47.93
2018-02-08T23:10:39.179Z,47.17
2018-02-08T23:13:06.646Z,41.77
2018-02-08T23:15:34.110Z,53.60
2018-02-08T23:18:01.593Z,54.47
2018-02-08T23:20:29.059Z,47.17
2018-02-08T23:22:56.549Z,44.40
2018-02-08T23:25:24.017Z,51.60
2018-02-08T23:27:51.507Z,40.20
2018-02-08T23:30:18.971Z,48.77
2018-02-08T23:32:47.229Z,43.37
2018-02-08T23:35:14.702Z,52.37
2018-02-08T23:37:42.249Z,53.33
2018-02-08T23:40:09.731Z,44.00
2018-02-08T23:42:37.180Z,59.53
2018-02-08T23:45:04.642Z,52.23
2018-02-08T23:47:32.903Z,48.00
2018-02-08T23:50:00.387Z,55.70
2018-02-08T23:52:27.877Z,45.07
2018-02-08T23:54:55.342Z,52.00
2018-02-08T23:57:22.821Z,48.60
2018-02-08T23:59:50.306Z,46.20
